Time;durP1;ratioP1;P1;durP2;ratioP2;P2;SDS_P1;SDS_P2;PMS_P1;PMS_P2;Temp;Humidity;BMP_temperature;BMP_pressure;BME280_temperature;BME280_humidity;BME280_pressure;Samples;Min_cycle;Max_cycle;Signal;HPM_P1;HPM_P2
2021/06/30 00:02:54;;;;;;;13.75;2.22;;;;;;;21.22;58.04;99425.41;2110323;82;21130;-69
2021/06/30 00:05:57;;;;;;;6.35;1.60;;;;;;;21.04;58.48;99430.07;2113406;82;21106;-67
2021/06/30 00:09:00;;;;;;;13.48;2.10;;;;;;;20.80;60.17;99439.47;2116640;82;21097;-67
2021/06/30 00:12:04;;;;;;;3.40;1.67;;;;;;;20.54;60.74;99431.05;2114094;82;21060;-68
2021/06/30 00:15:17;;;;;;;13.08;2.02;;;;;;;20.27;61.80;99426.88;2114606;82;21008;-70
2021/06/30 00:18:20;;;;;;;7.25;1.52;;;;;;;19.94;62.89;99415.60;2113566;82;21632;-69
2021/06/30 00:21:24;;;;;;;5.70;1.22;;;;;;;19.64;63.79;99403.77;2110452;82;21013;-67
2021/06/30 00:24:26;;;;;;;3.35;1.20;;;;;;;19.43;64.40;99407.99;2113849;82;21088;-67
2021/06/30 00:27:27;;;;;;;9.83;1.87;;;;;;;19.22;65.50;99392.00;2092356;83;21017;-67
2021/06/30 00:30:29;;;;;;;3.30;1.50;;;;;;;19.06;65.48;99390.88;2097378;83;21051;-72
2021/06/30 00:33:33;;;;;;;7.28;1.67;;;;;;;18.91;66.84;99397.32;2094391;82;21030;-68
2021/06/30 00:36:43;;;;;;;8.18;1.47;;;;;;;18.73;67.28;99395.59;2094785;83;21017;-68
2021/06/30 00:39:43;;;;;;;4.08;1.20;;;;;;;18.58;67.49;99380.80;2090498;83;21007;-69
2021/06/30 00:42:45;;;;;;;11.83;1.62;;;;;;;18.51;67.70;99373.91;2092887;83;21037;-70
2021/06/30 00:45:49;;;;;;;5.83;1.60;;;;;;;18.47;68.00;99353.94;2089289;82;21048;-69
2021/06/30 00:48:52;;;;;;;7.55;1.82;;;;;;;18.45;68.31;99343.98;2094579;82;21072;-69
2021/06/30 00:52:01;;;;;;;4.55;1.87;;;;;;;18.47;68.41;99337.81;2091325;82;21109;-69
2021/06/30 00:55:04;;;;;;;4.58;1.52;;;;;;;18.44;69.04;99336.95;2097192;83;21087;-68
2021/06/30 00:58:06;;;;;;;6.03;1.37;;;;;;;18.35;70.08;99334.62;2093988;83;21032;-68
2021/06/30 01:05:15;;;;;;;5.53;2.05;;;;;;;18.23;69.75;99290.88;2093581;83;21043;-68
2021/06/30 01:08:19;;;;;;;11.63;1.60;;;;;;;18.17;69.83;99269.55;2092451;83;21644;-75
2021/06/30 01:11:22;;;;;;;6.17;1.35;;;;;;;17.92;71.06;99249.16;2092368;83;21536;-72
2021/06/30 01:14:29;;;;;;;2.50;1.55;;;;;;;17.69;71.28;99231.20;2090979;83;21057;-68
2021/06/30 01:17:31;;;;;;;4.08;1.72;;;;;;;17.57;71.87;99207.56;2099482;82;21048;-68
2021/06/30 01:20:34;;;;;;;6.05;1.70;;;;;;;17.54;72.10;99195.47;2096497;83;20980;-69
2021/06/30 01:23:39;;;;;;;4.60;1.70;;;;;;;17.52;72.33;99170.74;2096283;83;21003;-69
2021/06/30 01:26:44;;;;;;;9.73;1.72;;;;;;;17.43;72.99;99106.46;2116657;82;21070;-74
2021/06/30 01:29:48;;;;;;;5.28;1.77;;;;;;;17.41;74.51;99040.99;2117677;82;21460;-68
2021/06/30 01:32:50;;;;;;;9.63;2.10;;;;;;;17.30;74.44;99043.17;2110742;82;21000;-73
2021/06/30 01:35:53;;;;;;;6.03;1.40;;;;;;;17.29;74.54;99089.81;2113221;82;21066;-69
2021/06/30 01:38:56;;;;;;;3.60;1.60;;;;;;;17.25;76.82;99030.47;2114114;82;21024;-69
2021/06/30 01:42:01;;;;;;;6.83;2.50;;;;;;;17.12;76.60;99025.39;2114593;82;21507;-69
2021/06/30 01:45:03;;;;;;;3.87;1.40;;;;;;;17.07;75.79;99034.66;2115897;82;20966;-70
2021/06/30 01:48:09;;;;;;;11.30;1.90;;;;;;;17.13;77.08;99204.44;2117664;82;21498;-71
2021/06/30 01:51:10;;;;;;;3.47;1.95;;;;;;;17.12;78.69;99192.06;2116008;82;20981;-74
2021/06/30 01:54:15;;;;;;;2.98;1.70;;;;;;;17.05;78.45;99188.16;2113172;82;20998;-68
2021/06/30 01:57:16;;;;;;;3.80;1.22;;;;;;;17.09;78.46;99207.27;2114511;82;21009;-68
2021/06/30 02:00:20;;;;;;;2.17;1.35;;;;;;;17.10;77.70;99210.26;2112641;82;21071;-68
2021/06/30 02:03:22;;;;;;;3.45;1.30;;;;;;;17.10;77.32;99205.70;2114327;82;21561;-70
2021/06/30 02:06:25;;;;;;;3.52;1.42;;;;;;;17.09;77.61;99203.25;2071510;84;20995;-69
2021/06/30 02:09:27;;;;;;;7.50;1.27;;;;;;;17.06;77.62;99207.20;2114846;82;20983;-68
2021/06/30 02:12:29;;;;;;;3.17;1.22;;;;;;;17.01;77.85;99213.27;2115282;82;20985;-70
2021/06/30 02:15:34;;;;;;;3.95;1.57;;;;;;;16.97;79.09;99214.77;2117146;82;21013;-69
2021/06/30 02:18:36;;;;;;;3.20;1.00;;;;;;;16.92;78.85;99213.82;2116566;82;21016;-74
2021/06/30 02:21:39;;;;;;;2.27;1.20;;;;;;;16.86;79.13;99206.18;2111202;82;21111;-69
2021/06/30 02:24:41;;;;;;;1.80;1.22;;;;;;;16.81;79.48;99207.42;2117782;82;21539;-69
2021/06/30 02:27:44;;;;;;;3.08;1.32;;;;;;;16.76;80.00;99215.28;2112659;82;21107;-68
2021/06/30 02:30:48;;;;;;;1.75;0.95;;;;;;;16.73;79.38;99219.77;2114885;82;21071;-69
2021/06/30 02:33:50;;;;;;;4.30;1.17;;;;;;;16.71;79.11;99220.51;2118553;82;20996;-68
2021/06/30 02:36:54;;;;;;;1.02;0.95;;;;;;;16.71;78.82;99219.16;2117767;82;21100;-68
2021/06/30 02:39:59;;;;;;;5.08;1.07;;;;;;;16.72;78.80;99233.66;2117632;82;21035;-70
2021/06/30 02:43:04;;;;;;;1.80;1.17;;;;;;;16.69;78.79;99234.64;2117147;82;21000;-68
2021/06/30 02:46:05;;;;;;;1.45;1.02;;;;;;;16.66;79.23;99240.45;2112387;82;21011;-69
2021/06/30 02:49:07;;;;;;;1.20;1.00;;;;;;;16.63;79.12;99239.58;2120945;82;20990;-72
2021/06/30 02:52:10;;;;;;;3.17;1.12;;;;;;;16.59;78.89;99246.73;2119285;82;21040;-69
2021/06/30 02:55:13;;;;;;;1.95;1.25;;;;;;;16.58;79.09;99245.60;2119076;82;21023;-69
2021/06/30 02:58:15;;;;;;;3.70;1.15;;;;;;;16.57;78.57;99244.79;2093261;83;20973;-71
2021/06/30 03:01:18;;;;;;;1.55;0.90;;;;;;;16.59;78.38;99242.71;2088276;83;21534;-68
2021/06/30 03:04:21;;;;;;;1.82;1.30;;;;;;;16.58;78.27;99246.44;2089562;83;21087;-68
2021/06/30 03:07:23;;;;;;;1.37;1.25;;;;;;;16.57;78.33;99246.13;2095686;83;21029;-68
2021/06/30 03:10:25;;;;;;;4.67;0.98;;;;;;;16.58;78.17;99245.11;2092599;83;21820;-68
2021/06/30 03:13:30;;;;;;;2.15;1.00;;;;;;;16.61;78.09;99259.06;2089736;83;21048;-74
2021/06/30 03:16:32;;;;;;;4.08;1.17;;;;;;;16.61;78.20;99261.73;2091416;83;21246;-72
2021/06/30 03:19:34;;;;;;;2.85;1.32;;;;;;;16.59;78.17;99256.09;2095083;83;21345;-72
2021/06/30 03:22:39;;;;;;;1.72;1.17;;;;;;;16.60;78.20;99258.25;2090313;83;21020;-66
2021/06/30 03:25:42;;;;;;;0.82;0.80;;;;;;;16.61;78.11;99253.70;2093942;83;21862;-66
2021/06/30 03:28:45;;;;;;;2.27;1.05;;;;;;;16.60;78.21;99254.23;2067733;84;21070;-68
2021/06/30 03:31:48;;;;;;;1.90;1.30;;;;;;;16.61;78.15;99256.38;2118347;82;21529;-66
2021/06/30 03:34:50;;;;;;;1.80;1.32;;;;;;;16.63;78.16;99251.63;2118093;82;21023;-67
2021/06/30 03:37:53;;;;;;;1.85;1.17;;;;;;;16.74;78.27;99255.68;2118675;82;21019;-68
2021/06/30 03:40:55;;;;;;;2.98;1.20;;;;;;;17.16;78.44;99265.09;2085785;83;21060;-70
2021/06/30 03:43:59;;;;;;;1.27;0.93;;;;;;;17.73;78.13;99272.59;2093920;83;21078;-66
2021/06/30 03:47:02;;;;;;;2.33;0.90;;;;;;;18.26;77.26;99284.23;2083519;83;21111;-66
2021/06/30 03:50:10;;;;;;;1.92;1.10;;;;;;;18.75;76.59;99284.67;2117814;82;21024;-67
2021/06/30 03:53:13;;;;;;;2.12;1.00;;;;;;;18.89;75.20;99283.84;2112036;82;21533;-68
2021/06/30 03:56:15;;;;;;;1.98;0.98;;;;;;;18.71;74.89;99295.05;2092088;83;21575;-66
2021/06/30 03:59:19;;;;;;;4.20;0.90;;;;;;;18.51;74.77;99294.67;2091534;83;21101;-71
2021/06/30 04:02:24;;;;;;;2.70;1.07;;;;;;;18.35;74.92;99298.38;2093995;83;21009;-70
2021/06/30 04:05:30;;;;;;;4.47;1.27;;;;;;;18.22;74.78;99300.00;2116604;82;21068;-66
2021/06/30 04:08:32;;;;;;;1.67;1.20;;;;;;;18.12;75.02;99305.95;2119289;82;21103;-67
2021/06/30 04:11:37;;;;;;;1.50;1.02;;;;;;;18.04;75.10;99309.00;2118750;81;21048;-67
2021/06/30 04:14:40;;;;;;;1.42;1.30;;;;;;;17.94;75.22;99305.30;2121067;82;21603;-66
2021/06/30 04:17:45;;;;;;;1.02;1.02;;;;;;;17.84;75.35;99313.91;2114323;81;21393;-67
2021/06/30 04:20:49;;;;;;;2.22;0.95;;;;;;;17.77;75.84;99311.33;2115943;82;21590;-69
2021/06/30 04:23:53;;;;;;;1.22;1.15;;;;;;;17.77;76.43;99322.59;2115035;82;21052;-66
2021/06/30 04:26:57;;;;;;;1.22;0.98;;;;;;;17.75;76.04;99322.81;2116548;82;21033;-69
2021/06/30 04:30:02;;;;;;;3.00;0.90;;;;;;;17.78;76.46;99319.69;2117779;82;21114;-67
2021/06/30 04:33:06;;;;;;;6.25;1.30;;;;;;;17.84;76.26;99329.48;2118347;82;21114;-66
2021/06/30 04:36:15;;;;;;;3.87;1.40;;;;;;;17.87;76.29;99326.33;2113934;82;21097;-66
2021/06/30 04:39:15;;;;;;;3.55;1.00;;;;;;;18.00;76.45;99328.51;2113818;82;21324;-66
2021/06/30 04:42:18;;;;;;;0.93;0.93;;;;;;;18.22;76.49;99330.06;2112507;82;21012;-68
2021/06/30 04:45:23;;;;;;;4.10;1.72;;;;;;;18.41;76.27;99331.52;2113013;82;21008;-68
2021/06/30 04:48:25;;;;;;;6.40;1.30;;;;;;;18.56;75.86;99332.38;2118883;82;21071;-66
2021/06/30 04:51:31;;;;;;;1.65;0.90;;;;;;;18.70;75.89;99344.48;2118841;82;21076;-69
2021/06/30 04:54:34;;;;;;;2.62;1.12;;;;;;;18.81;75.85;99350.92;2114226;82;21048;-67
2021/06/30 04:57:38;;;;;;;4.28;1.17;;;;;;;18.88;75.68;99348.08;2117055;82;20965;-65
2021/06/30 05:00:40;;;;;;;2.50;0.93;;;;;;;19.04;75.50;99347.31;2118571;82;21012;-66
2021/06/30 05:03:42;;;;;;;3.40;1.10;;;;;;;19.14;75.18;99335.38;2122160;82;21121;-72
2021/06/30 05:06:50;;;;;;;2.87;1.15;;;;;;;19.20;74.87;99336.28;2115437;82;21056;-66
2021/06/30 05:09:52;;;;;;;1.90;0.93;;;;;;;19.26;74.91;99339.38;2119791;82;21021;-71
2021/06/30 05:12:53;;;;;;;1.40;0.70;;;;;;;19.32;74.74;99342.97;2124517;82;20998;-69
2021/06/30 05:15:55;;;;;;;1.32;0.88;;;;;;;19.33;74.59;99336.52;2115340;82;21040;-69
2021/06/30 05:18:57;;;;;;;2.37;0.90;;;;;;;19.41;74.56;99338.28;2116114;82;21102;-65
2021/06/30 05:21:58;;;;;;;1.25;1.00;;;;;;;19.81;74.62;99340.02;2118994;82;21091;-65
2021/06/30 05:25:03;;;;;;;1.02;0.93;;;;;;;20.46;73.79;99341.72;2119101;82;21060;-65
2021/06/30 05:28:06;;;;;;;1.27;1.17;;;;;;;20.84;72.42;99342.75;2112385;82;21148;-66
2021/06/30 05:31:08;;;;;;;1.80;0.90;;;;;;;20.85;72.32;99341.13;2115014;82;21040;-65
2021/06/30 05:34:10;;;;;;;2.00;1.10;;;;;;;20.93;72.03;99336.64;2116163;82;21063;-66
2021/06/30 05:37:11;;;;;;;0.88;0.82;;;;;;;21.70;72.46;99340.05;2121801;82;21062;-67
2021/06/30 05:40:13;;;;;;;1.85;0.70;;;;;;;22.69;71.33;99349.27;2117647;83;21535;-65
2021/06/30 05:43:15;;;;;;;1.42;0.90;;;;;;;23.32;68.93;99342.97;2121214;82;21021;-65
2021/06/30 05:46:19;;;;;;;1.12;0.70;;;;;;;23.13;67.55;99338.06;2115257;82;21017;-66
2021/06/30 05:49:21;;;;;;;1.00;0.90;;;;;;;22.79;66.87;99338.50;2116952;82;21066;-67
2021/06/30 05:52:23;;;;;;;0.85;0.80;;;;;;;22.45;67.06;99335.95;2112324;82;21605;-67
2021/06/30 05:55:24;;;;;;;2.95;0.80;;;;;;;22.17;66.41;99335.23;2092063;83;21136;-68
2021/06/30 05:58:26;;;;;;;0.65;0.65;;;;;;;22.11;67.31;99341.69;2092768;83;21047;-69
2021/06/30 06:01:29;;;;;;;1.45;0.70;;;;;;;22.81;67.67;99345.01;2091302;83;21131;-67
2021/06/30 06:04:33;;;;;;;0.93;0.68;;;;;;;23.03;65.79;99336.16;2090650;83;20964;-70
2021/06/30 06:07:35;;;;;;;1.32;0.95;;;;;;;22.94;65.84;99346.37;2095008;83;21032;-71
2021/06/30 06:10:37;;;;;;;1.70;0.70;;;;;;;22.73;65.42;99348.22;2122826;82;20975;-70
2021/06/30 06:13:40;;;;;;;2.47;0.60;;;;;;;22.58;65.56;99346.25;2123070;82;21022;-69
2021/06/30 06:16:42;;;;;;;1.85;0.60;;;;;;;22.34;65.75;99339.95;2114179;82;21029;-68
2021/06/30 06:19:44;;;;;;;3.27;0.98;;;;;;;22.66;66.01;99330.87;2116249;82;21005;-66
2021/06/30 06:22:45;;;;;;;1.75;0.80;;;;;;;23.49;65.27;99340.81;2095739;84;21066;-67
2021/06/30 06:25:47;;;;;;;3.58;0.80;;;;;;;23.70;63.79;99345.15;2094261;83;21085;-68
2021/06/30 06:28:49;;;;;;;1.15;0.65;;;;;;;23.88;63.28;99349.77;2095878;83;21154;-68
2021/06/30 06:31:51;;;;;;;0.57;0.57;;;;;;;24.04;63.15;99351.34;2098558;83;21043;-68
2021/06/30 06:34:53;;;;;;;2.77;0.47;;;;;;;23.91;62.75;99347.86;2099042;83;21901;-67
2021/06/30 06:37:54;;;;;;;2.05;1.10;;;;;;;23.55;62.40;99349.20;2102630;83;20982;-68
2021/06/30 06:40:56;;;;;;;1.05;0.57;;;;;;;23.37;62.84;99361.38;2099978;83;20953;-67
2021/06/30 06:43:58;;;;;;;1.20;0.68;;;;;;;23.13;62.58;99367.02;2101947;83;21062;-68
2021/06/30 06:47:03;;;;;;;1.27;0.70;;;;;;;22.70;62.35;99358.22;2101277;83;21338;-69
2021/06/30 06:50:06;;;;;;;2.55;0.90;;;;;;;22.38;63.41;99363.20;2096974;83;20993;-68
2021/06/30 06:53:08;;;;;;;0.80;0.80;;;;;;;22.22;63.73;99358.81;2097659;83;21009;-67
2021/06/30 06:56:12;;;;;;;2.40;0.80;;;;;;;22.33;63.54;99361.30;2101261;83;21088;-66
2021/06/30 06:59:13;;;;;;;1.20;0.60;;;;;;;22.69;63.39;99361.98;2107122;83;21024;-67
2021/06/30 07:02:15;;;;;;;0.72;0.72;;;;;;;22.91;63.23;99365.84;2093551;83;21616;-68
2021/06/30 07:05:16;;;;;;;0.95;0.70;;;;;;;22.98;63.41;99372.67;2100497;83;22450;-67
2021/06/30 07:08:18;;;;;;;0.65;0.65;;;;;;;23.10;62.37;99367.02;2094710;83;21041;-67
2021/06/30 07:11:20;;;;;;;2.65;0.80;;;;;;;23.03;62.49;99368.63;2100916;83;21373;-68
2021/06/30 07:14:21;;;;;;;0.68;0.68;;;;;;;22.93;62.60;99373.16;2100320;83;22260;-67
2021/06/30 07:17:25;;;;;;;5.45;1.10;;;;;;;22.93;62.62;99367.75;2094840;83;20973;-68
2021/06/30 07:20:26;;;;;;;2.75;1.20;;;;;;;22.76;62.68;99368.78;2092207;83;21789;-68
2021/06/30 07:23:28;;;;;;;2.42;1.05;;;;;;;22.64;63.03;99372.26;2078927;83;21019;-68
2021/06/30 07:26:30;;;;;;;4.75;1.70;;;;;;;22.66;63.61;99371.43;2092386;83;21002;-68
2021/06/30 07:29:35;;;;;;;4.15;1.77;;;;;;;22.70;62.54;99385.26;2089575;84;21056;-68
2021/06/30 07:32:36;;;;;;;4.37;1.60;;;;;;;22.68;62.72;99390.91;2091721;83;21490;-69
2021/06/30 07:35:38;;;;;;;1.98;1.60;;;;;;;22.58;62.51;99394.40;2085996;83;21082;-69
2021/06/30 07:38:42;;;;;;;4.20;1.65;;;;;;;22.53;62.65;99405.73;2089738;83;21131;-69
2021/06/30 07:41:43;;;;;;;2.12;2.00;;;;;;;22.41;62.53;99411.31;2090843;83;21539;-69
2021/06/30 07:44:46;;;;;;;2.33;2.12;;;;;;;22.22;62.20;99410.95;2094769;84;22491;-69
2021/06/30 07:47:47;;;;;;;1.90;1.80;;;;;;;22.06;62.74;99407.83;2071633;84;21087;-69
2021/06/30 07:50:49;;;;;;;2.95;1.95;;;;;;;21.98;62.73;99406.96;2114618;82;21074;-68
2021/06/30 07:53:51;;;;;;;1.62;1.52;;;;;;;21.99;63.17;99409.92;2076885;84;21544;-69
2021/06/30 07:56:53;;;;;;;2.47;1.80;;;;;;;21.99;63.28;99409.92;2119131;82;20996;-69
2021/06/30 07:59:54;;;;;;;2.25;1.90;;;;;;;21.99;63.30;99412.63;2118945;82;21011;-69
2021/06/30 08:02:56;;;;;;;3.25;2.05;;;;;;;21.96;63.42;99420.70;2112881;82;22695;-68
2021/06/30 08:05:57;;;;;;;2.92;1.90;;;;;;;21.99;63.50;99420.73;2114748;82;21075;-69
2021/06/30 08:08:59;;;;;;;1.90;1.80;;;;;;;22.44;64.17;99413.52;2115729;82;21078;-68
2021/06/30 08:12:09;;;;;;;2.75;1.57;;;;;;;22.83;63.29;99417.20;2115576;82;20995;-68
2021/06/30 08:15:11;;;;;;;5.05;2.12;;;;;;;22.96;62.72;99406.47;2106809;82;20971;-70
2021/06/30 08:18:13;;;;;;;2.22;2.00;;;;;;;23.04;62.41;99410.83;2112579;82;21071;-69
2021/06/30 08:21:16;;;;;;;3.40;1.90;;;;;;;23.25;62.57;99410.33;2115833;82;20984;-69
2021/06/30 08:24:20;;;;;;;1.80;1.70;;;;;;;23.35;62.18;99412.26;2110351;82;21031;-68
2021/06/30 08:27:22;;;;;;;3.02;1.90;;;;;;;23.38;62.23;99422.55;2109910;82;21080;-70
2021/06/30 08:30:24;;;;;;;1.80;1.70;;;;;;;23.34;61.62;99432.30;2111142;82;20954;-68
2021/06/30 08:33:26;;;;;;;2.08;1.70;;;;;;;23.24;61.45;99426.84;2114037;82;21048;-69
2021/06/30 08:36:29;;;;;;;3.10;1.77;;;;;;;23.11;61.36;99431.40;2116564;82;21047;-69
2021/06/30 08:39:32;;;;;;;1.70;1.60;;;;;;;22.95;61.26;99427.81;2118350;82;21064;-68
2021/06/30 08:42:33;;;;;;;2.30;1.87;;;;;;;22.78;61.43;99435.59;2120087;82;21086;-68
2021/06/30 08:45:37;;;;;;;3.05;1.90;;;;;;;22.57;61.75;99433.30;2120605;82;21129;-70
2021/06/30 08:48:39;;;;;;;2.52;2.33;;;;;;;22.42;62.43;99442.69;2112823;82;21023;-69
2021/06/30 08:51:44;;;;;;;4.40;2.52;;;;;;;22.34;62.76;99445.88;2116877;82;21466;-68
2021/06/30 08:54:46;;;;;;;3.30;2.50;;;;;;;22.27;63.08;99445.28;2120579;82;21411;-68
2021/06/30 08:57:49;;;;;;;4.03;2.45;;;;;;;22.24;63.11;99441.75;2120561;82;21058;-68
2021/06/30 09:00:51;;;;;;;2.37;2.17;;;;;;;22.21;63.30;99437.67;2120707;82;20994;-66
2021/06/30 09:03:55;;;;;;;2.40;2.20;;;;;;;22.38;63.36;99451.87;2118816;82;21546;-68
2021/06/30 09:06:56;;;;;;;2.50;2.25;;;;;;;22.45;62.66;99448.92;2117433;82;20987;-69
2021/06/30 09:09:58;;;;;;;2.45;2.22;;;;;;;22.56;62.74;99441.69;2119518;82;20944;-68
2021/06/30 09:13:01;;;;;;;2.20;2.00;;;;;;;22.62;62.56;99447.40;2094558;83;21573;-68
2021/06/30 09:16:03;;;;;;;2.20;2.10;;;;;;;22.73;62.48;99445.56;2082295;83;21068;-68
2021/06/30 09:19:07;;;;;;;2.22;2.05;;;;;;;22.77;62.16;99447.46;2093948;83;21555;-67
2021/06/30 09:22:08;;;;;;;2.92;2.72;;;;;;;22.84;62.11;99452.65;2085105;83;21005;-67
2021/06/30 09:25:28;;;;;;;3.83;2.20;;;;;;;22.76;61.90;99449.91;2067038;84;20988;-68
2021/06/30 09:28:29;;;;;;;3.22;2.92;;;;;;;22.67;61.93;99446.08;2120467;82;21014;-67
2021/06/30 09:31:40;;;;;;;3.27;3.08;;;;;;;22.68;61.99;99446.89;2113636;82;21552;-67
2021/06/30 09:34:39;;;;;;;3.10;2.80;;;;;;;22.67;62.28;99447.43;2087425;83;21036;-67
2021/06/30 09:37:41;;;;;;;3.30;2.95;;;;;;;22.74;62.21;99449.89;2087803;83;21025;-69
2021/06/30 09:40:45;;;;;;;3.47;2.80;;;;;;;22.97;62.07;99442.70;2096567;83;20978;-69
2021/06/30 09:43:47;;;;;;;3.20;2.87;;;;;;;23.24;61.07;99443.08;2089839;83;21047;-67
2021/06/30 09:46:54;;;;;;;2.92;2.72;;;;;;;23.39;60.64;99438.24;2089479;83;21010;-67
2021/06/30 09:49:56;;;;;;;2.70;2.50;;;;;;;23.46;60.66;99444.22;2091958;84;21470;-68
2021/06/30 09:52:58;;;;;;;3.27;2.62;;;;;;;23.46;60.44;99442.88;2085127;83;20981;-68
2021/06/30 09:56:32;;;;;;;2.70;2.50;;;;;;;23.63;60.27;99439.38;2091993;84;21055;-68
2021/06/30 09:59:28;;;;;;;5.30;2.70;;;;;;;24.00;60.27;99437.52;2092357;82;21037;-68
2021/06/30 10:02:39;;;;;;;2.92;2.60;;;;;;;24.06;59.73;99437.23;2090342;83;21633;-69
2021/06/30 10:05:41;;;;;;;3.35;2.58;;;;;;;23.94;58.95;99442.13;2090449;83;20987;-68
2021/06/30 10:08:43;;;;;;;3.95;2.50;;;;;;;23.94;58.02;99445.64;2086309;84;21087;-69
2021/06/30 10:11:58;;;;;;;5.90;2.30;;;;;;;23.90;58.79;99436.42;2090912;84;20995;-70
2021/06/30 10:15:02;;;;;;;5.25;2.67;;;;;;;23.87;58.56;99441.57;2091469;83;21015;-68
2021/06/30 10:18:05;;;;;;;3.37;2.58;;;;;;;23.86;58.40;99447.54;2089468;83;21528;-68
2021/06/30 10:21:08;;;;;;;2.90;2.60;;;;;;;23.92;59.13;99445.09;2091386;83;21695;-69
2021/06/30 10:24:10;;;;;;;3.58;2.30;;;;;;;24.26;58.70;99443.17;2095512;83;20968;-68
2021/06/30 10:27:14;;;;;;;5.75;2.58;;;;;;;24.60;57.81;99437.98;2091011;84;21013;-69
2021/06/30 10:30:17;;;;;;;4.28;2.60;;;;;;;24.79;57.23;99439.55;2091665;83;21051;-68
2021/06/30 10:33:37;;;;;;;4.00;2.20;;;;;;;24.83;56.71;99435.21;2092469;84;21610;-68
2021/06/30 10:36:58;;;;;;;3.02;2.40;;;;;;;24.70;56.05;99443.13;2091986;84;21031;-69
2021/06/30 10:40:13;;;;;;;2.47;1.90;;;;;;;24.68;56.74;99434.44;2094695;83;23168;-68
2021/06/30 10:43:15;;;;;;;3.10;2.87;;;;;;;24.66;56.16;99437.97;2087390;84;21021;-68
2021/06/30 10:46:26;;;;;;;3.77;2.98;;;;;;;24.61;56.80;99446.95;2093821;83;21676;-68
2021/06/30 10:49:30;;;;;;;3.45;3.17;;;;;;;24.50;56.43;99455.65;2087662;83;21012;-72
2021/06/30 10:52:31;;;;;;;5.83;2.65;;;;;;;24.37;57.29;99469.19;2118748;83;21064;-71
2021/06/30 10:58:43;;;;;;;7.08;3.00;;;;;;;24.80;56.45;99456.63;2119899;82;21484;-68
2021/06/30 11:02:13;;;;;;;3.62;3.33;;;;;;;24.59;56.58;99455.89;2121629;82;21079;-69
2021/06/30 11:05:18;;;;;;;;;;;;;;;24.70;57.24;99453.42;2124274;82;21310;-69
2021/06/30 11:08:46;;;;;;;3.67;2.67;;;;;;;24.89;56.28;99448.73;2123835;82;20179;-68
2021/06/30 11:11:54;;;;;;;3.85;3.45;;;;;;;24.97;54.93;99443.53;2096965;82;20992;-68
2021/06/30 11:14:56;;;;;;;6.42;2.70;;;;;;;25.21;55.83;99442.93;2118258;82;21097;-68
2021/06/30 11:17:58;;;;;;;3.85;2.70;;;;;;;25.30;55.28;99454.82;2121375;82;21041;-68
2021/06/30 11:21:03;;;;;;;4.35;2.77;;;;;;;25.40;55.47;99444.46;2120556;82;21032;-69
2021/06/30 11:24:11;;;;;;;4.42;2.52;;;;;;;25.56;55.41;99450.59;2121314;82;21012;-68
2021/06/30 11:27:36;;;;;;;5.97;2.60;;;;;;;25.62;54.97;99454.88;2115503;82;21052;-67
2021/06/30 11:30:42;;;;;;;5.25;2.50;;;;;;;25.69;54.73;99452.13;2098868;83;21113;-68
2021/06/30 11:34:15;;;;;;;2.90;2.58;;;;;;;25.84;53.55;99450.41;2097160;83;21152;-70
2021/06/30 11:37:17;;;;;;;3.40;2.22;;;;;;;25.87;53.09;99452.01;2099710;83;21091;-70
2021/06/30 11:41:04;;;;;;;3.47;2.47;;;;;;;25.74;52.46;99463.52;2101672;83;21007;-68
2021/06/30 11:43:30;;;;;;;2.52;2.33;;;;;;;25.40;52.85;99458.03;2094442;83;21036;-67
2021/06/30 11:46:31;;;;;;;4.00;2.47;;;;;;;25.16;53.37;99463.31;2100268;83;21069;-70
2021/06/30 11:49:33;;;;;;;3.10;2.15;;;;;;;25.07;54.00;99460.34;2098263;83;21398;-68
2021/06/30 11:52:35;;;;;;;;;;;;;;;25.01;54.19;99467.69;2079045;83;31671;-68
2021/06/30 11:55:43;;;;;;;2.47;2.20;;;;;;;24.83;54.49;99460.14;2100759;83;20206;-68
2021/06/30 11:58:53;;;;;;;10.15;2.40;;;;;;;24.86;54.77;99461.50;2101190;83;21082;-67
2021/06/30 12:01:55;;;;;;;2.72;2.30;;;;;;;25.15;54.08;99458.98;2101255;83;20992;-68
2021/06/30 12:05:16;;;;;;;2.10;2.00;;;;;;;25.25;54.39;99466.50;2093789;83;21011;-68
2021/06/30 12:08:17;;;;;;;2.40;2.20;;;;;;;25.47;53.67;99464.76;2100137;83;21091;-70
2021/06/30 12:11:33;;;;;;;4.53;2.47;;;;;;;25.63;53.59;99448.38;2099954;83;21103;-69
2021/06/30 12:14:49;;;;;;;2.20;2.08;;;;;;;25.77;52.68;99453.98;2099163;83;21091;-70
2021/06/30 12:17:55;;;;;;;2.90;2.45;;;;;;;26.03;52.11;99455.98;2100702;83;21079;-68
2021/06/30 12:20:59;;;;;;;2.40;2.20;;;;;;;26.15;50.94;99459.13;2095721;83;21014;-68
2021/06/30 12:24:00;;;;;;;5.42;2.80;;;;;;;26.18;51.80;99462.63;2096196;83;21022;-69
2021/06/30 12:27:10;;;;;;;4.22;2.50;;;;;;;25.90;51.23;99456.91;2099164;83;22207;-69
2021/06/30 12:30:24;;;;;;;3.20;2.20;;;;;;;25.76;51.69;99459.14;2102568;83;21538;-69
2021/06/30 12:33:25;;;;;;;4.30;2.40;;;;;;;25.94;51.43;99466.09;2098067;83;21334;-68
2021/06/30 12:36:27;;;;;;;5.03;2.37;;;;;;;25.82;51.29;99461.55;2102326;83;21070;-68
2021/06/30 12:39:31;;;;;;;2.10;2.00;;;;;;;25.58;51.10;99465.52;2096980;83;20974;-69
2021/06/30 12:43:01;;;;;;;3.20;2.30;;;;;;;25.52;51.17;99462.56;2047390;85;21070;-70
2021/06/30 12:46:02;;;;;;;3.00;2.73;;;;;;;25.84;50.74;99462.09;2103851;83;21075;-69
2021/06/30 12:49:18;;;;;;;4.92;2.08;;;;;;;25.94;50.17;99468.02;2098786;83;20983;-69
2021/06/30 12:52:22;;;;;;;5.37;2.33;;;;;;;25.84;51.00;99471.59;2099942;83;21003;-71
2021/06/30 12:55:24;;;;;;;3.47;2.65;;;;;;;25.93;50.66;99471.80;2099103;83;21443;-69
2021/06/30 12:58:52;;;;;;;2.37;2.17;;;;;;;25.79;51.06;99470.27;2101214;83;21062;-71
2021/06/30 13:01:56;;;;;;;2.70;2.47;;;;;;;25.93;50.32;99465.01;2094195;83;21048;-71
2021/06/30 13:04:56;;;;;;;4.62;2.35;;;;;;;26.04;50.32;99466.55;2098425;83;21053;-69
2021/06/30 13:07:58;;;;;;;4.67;2.50;;;;;;;25.90;49.63;99471.85;2097842;83;21613;-70
2021/06/30 13:11:10;;;;;;;6.20;2.50;;;;;;;25.82;50.29;99468.34;2099388;83;21056;-70
2021/06/30 13:14:17;;;;;;;3.27;2.55;;;;;;;25.96;50.38;99462.27;2097292;83;20993;-71
2021/06/30 13:17:22;;;;;;;2.83;2.58;;;;;;;25.88;50.04;99471.87;2097852;83;21008;-69
2021/06/30 13:20:24;;;;;;;4.05;2.90;;;;;;;25.71;50.71;99467.60;2102384;83;21001;-69
2021/06/30 13:23:37;;;;;;;6.03;2.70;;;;;;;25.86;51.34;99465.90;2103232;83;21051;-72
2021/06/30 13:37:03;;;;;;;3.85;2.42;;;;;;;25.68;50.65;99472.80;2117245;82;21053;-70
2021/06/30 13:40:05;;;;;;;3.70;2.60;;;;;;;25.43;50.89;99471.86;2117430;82;21428;-69
2021/06/30 13:43:08;;;;;;;4.67;2.55;;;;;;;25.37;51.09;99481.13;2116679;82;21517;-70
2021/06/30 13:46:14;;;;;;;3.62;3.30;;;;;;;25.27;51.24;99477.91;2113116;82;21099;-72
2021/06/30 13:49:15;;;;;;;4.62;2.85;;;;;;;25.12;50.99;99479.87;2115296;82;21698;-69
2021/06/30 13:52:17;;;;;;;5.08;2.87;;;;;;;24.97;51.01;99473.38;2120658;82;20988;-72
2021/06/30 13:55:24;;;;;;;3.30;2.75;;;;;;;24.98;51.30;99472.86;2117374;82;20991;-73
2021/06/30 13:58:24;;;;;;;3.55;3.25;;;;;;;25.06;51.40;99465.51;2115504;82;21020;-69
2021/06/30 14:01:26;;;;;;;3.25;2.67;;;;;;;25.07;51.10;99463.60;2116060;82;21118;-69
2021/06/30 14:04:27;;;;;;;3.15;2.87;;;;;;;24.89;51.25;99457.70;2120298;82;20991;-69
2021/06/30 14:07:29;;;;;;;3.17;2.98;;;;;;;24.77;51.20;99459.90;2115405;82;21598;-69
2021/06/30 14:10:32;;;;;;;3.22;2.92;;;;;;;24.77;51.74;99463.42;2118958;82;21276;-69
2021/06/30 14:13:34;;;;;;;4.20;3.05;;;;;;;24.75;51.53;99463.42;2119551;82;21003;-70
2021/06/30 14:16:36;;;;;;;4.75;2.83;;;;;;;24.68;51.59;99448.00;2114630;82;21083;-73
2021/06/30 14:19:37;;;;;;;4.60;3.02;;;;;;;24.54;51.79;99451.28;2113117;82;21004;-70
2021/06/30 14:22:43;;;;;;;3.98;2.77;;;;;;;24.39;51.40;99456.72;2113445;82;21094;-70
2021/06/30 14:25:46;;;;;;;7.08;3.92;;;;;;;24.27;51.68;99453.47;2114524;82;21082;-69
2021/06/30 14:28:50;;;;;;;3.10;2.90;;;;;;;24.22;51.74;99461.09;2113569;82;21600;-68
2021/06/30 14:31:51;;;;;;;7.40;3.20;;;;;;;24.20;51.76;99457.02;2108330;82;21014;-68
2021/06/30 14:34:54;;;;;;;3.10;2.80;;;;;;;24.18;51.81;99461.89;2080747;83;20997;-71
2021/06/30 14:37:58;;;;;;;9.60;2.92;;;;;;;24.36;51.91;99458.63;2083208;83;21116;-73
2021/06/30 14:40:59;;;;;;;4.28;2.80;;;;;;;24.57;51.89;99458.87;2109347;82;21010;-71
2021/06/30 14:44:01;;;;;;;3.15;2.83;;;;;;;24.60;51.65;99456.16;2105569;82;21726;-70
2021/06/30 14:47:04;;;;;;;2.80;2.60;;;;;;;24.45;51.16;99452.94;2085659;83;21038;-70